createdAt,value
2023-02-22T00:04:51.518Z,2.50
2023-02-22T00:07:21.239Z,2.25
2023-02-22T00:09:49.403Z,1.70
2023-02-22T00:12:17.100Z,1.17
2023-02-22T00:14:44.790Z,2.03
2023-02-22T00:17:13.471Z,1.65
2023-02-22T00:19:41.220Z,2.10
2023-02-22T00:22:10.264Z,1.90
2023-02-22T00:24:38.012Z,1.40
2023-02-22T00:27:05.750Z,1.90
2023-02-22T00:29:34.535Z,1.75
2023-02-22T00:32:02.357Z,1.83
2023-02-22T00:34:30.854Z,1.90
2023-02-22T00:37:02.704Z,1.90
2023-02-22T00:39:31.834Z,2.15
2023-02-22T00:41:59.643Z,2.03
2023-02-22T00:44:28.325Z,1.95
2023-02-22T00:46:56.082Z,2.10
2023-02-22T00:49:23.758Z,2.10
2023-02-22T00:51:51.483Z,1.80
2023-02-22T00:54:19.976Z,1.83
2023-02-22T00:56:50.386Z,1.92
2023-02-22T00:59:18.200Z,2.05
2023-02-22T01:01:46.127Z,1.67
2023-02-22T01:04:13.816Z,1.65
2023-02-22T01:06:41.652Z,2.40
2023-02-22T01:09:09.456Z,1.80
2023-02-22T01:11:37.232Z,2.10
2023-02-22T01:14:09.771Z,2.42
2023-02-22T01:16:37.601Z,1.73
2023-02-22T01:19:06.147Z,1.98
2023-02-22T01:21:33.862Z,2.03
2023-02-22T01:24:01.561Z,2.38
2023-02-22T01:26:29.277Z,1.58
2023-02-22T01:28:57.079Z,2.33
2023-02-22T01:31:26.544Z,1.73
2023-02-22T01:33:54.307Z,1.90
2023-02-22T01:36:22.398Z,2.35
2023-02-22T01:38:50.106Z,1.77
2023-02-22T01:41:18.492Z,2.10
2023-02-22T01:43:46.589Z,2.03
2023-02-22T01:46:24.777Z,2.17
2023-02-22T01:49:00.040Z,2.30
2023-02-22T01:51:32.098Z,1.88
2023-02-22T01:54:07.249Z,1.73
2023-02-22T01:56:40.372Z,1.90
2023-02-22T01:59:13.029Z,1.27
2023-02-22T02:01:44.531Z,1.65
2023-02-22T02:04:18.954Z,1.30
2023-02-22T02:06:48.884Z,1.48
2023-02-22T02:09:29.556Z,1.63
2023-02-22T02:12:00.674Z,1.92
2023-02-22T02:14:28.435Z,1.70
2023-02-22T02:16:57.386Z,1.80
2023-02-22T02:19:43.531Z,1.88
2023-02-22T02:22:31.181Z,1.38
2023-02-22T02:25:37.628Z,2.10
2023-02-22T02:28:56.197Z,1.20
2023-02-22T02:32:22.756Z,2.67
2023-02-22T02:34:58.815Z,1.60
2023-02-22T02:37:38.179Z,2.42
2023-02-22T02:40:20.191Z,1.92
2023-02-22T02:43:00.983Z,1.67
2023-02-22T02:45:37.700Z,1.83
2023-02-22T02:48:12.213Z,1.90
2023-02-22T02:50:47.006Z,1.52
2023-02-22T02:53:21.602Z,1.40
2023-02-22T02:58:24.184Z,1.70
2023-02-22T03:03:57.193Z,1.48
2023-02-22T03:07:00.865Z,1.83
2023-02-22T03:09:44.764Z,1.38
2023-02-22T03:12:29.301Z,1.40
2023-02-22T03:15:14.237Z,1.05
2023-02-22T03:20:31.677Z,1.25
2023-02-22T03:23:08.062Z,1.58
2023-02-22T03:25:43.821Z,2.03
2023-02-22T03:28:19.445Z,1.40
2023-02-22T03:30:53.057Z,1.17
2023-02-22T03:33:33.527Z,1.80
2023-02-22T03:36:13.433Z,2.22
2023-02-22T03:38:45.136Z,1.73
2023-02-22T03:41:20.675Z,2.17
2023-02-22T03:43:55.474Z,1.85
2023-02-22T03:46:25.144Z,2.28
2023-02-22T03:49:04.009Z,1.45
2023-02-22T03:51:33.586Z,1.90
2023-02-22T03:54:01.498Z,1.50
2023-02-22T03:56:36.585Z,2.17
2023-02-22T03:59:07.836Z,1.55
2023-02-22T04:01:37.393Z,1.83
2023-02-22T04:04:06.039Z,1.67
2023-02-22T04:06:35.079Z,1.38
2023-02-22T04:09:02.826Z,1.38
2023-02-22T04:11:30.499Z,1.67
2023-02-22T04:13:58.265Z,1.90
2023-02-22T04:16:26.077Z,1.90
2023-02-22T04:18:53.753Z,2.10
2023-02-22T04:21:21.788Z,1.65
2023-02-22T04:23:50.923Z,1.70
2023-02-22T04:26:18.894Z,1.58
2023-02-22T04:28:46.584Z,1.77
2023-02-22T04:31:14.557Z,1.60
2023-02-22T04:33:42.355Z,1.40
2023-02-22T04:36:13.375Z,1.98
2023-02-22T04:38:41.067Z,1.95
2023-02-22T04:41:10.124Z,2.35
2023-02-22T04:43:37.841Z,1.75
2023-02-22T04:46:05.980Z,2.00
2023-02-22T04:48:33.662Z,1.55
2023-02-22T04:51:01.402Z,1.65
2023-02-22T04:53:29.172Z,2.08
2023-02-22T04:55:57.106Z,1.65
2023-02-22T04:58:26.453Z,1.50
2023-02-22T05:00:54.488Z,1.25
2023-02-22T05:03:22.159Z,2.15
2023-02-22T05:05:52.807Z,1.60
2023-02-22T05:08:20.707Z,1.90
2023-02-22T05:10:48.706Z,0.85
2023-02-22T05:13:16.453Z,1.85
2023-02-22T05:15:45.733Z,1.98
2023-02-22T05:18:13.466Z,1.95
2023-02-22T05:20:41.459Z,1.40
2023-02-22T05:23:10.107Z,1.65
2023-02-22T05:25:38.720Z,2.15
2023-02-22T05:28:13.868Z,1.25
2023-02-22T05:30:42.323Z,2.20
2023-02-22T05:33:11.679Z,1.60
2023-02-22T05:35:39.758Z,1.50
2023-02-22T05:38:08.300Z,1.20
2023-02-22T05:40:36.053Z,1.65
2023-02-22T05:43:03.961Z,1.70
2023-02-22T05:45:31.661Z,1.42
2023-02-22T05:47:59.719Z,1.38
2023-02-22T05:50:29.263Z,1.38
2023-02-22T05:52:57.186Z,1.90
2023-02-22T05:55:25.956Z,2.00
2023-02-22T05:57:54.254Z,1.50
2023-02-22T06:00:24.725Z,2.08
2023-02-22T06:02:57.232Z,1.88
2023-02-22T06:05:25.237Z,2.40
2023-02-22T06:07:55.133Z,2.05
2023-02-22T06:10:23.847Z,1.75
2023-02-22T06:12:53.160Z,2.10
2023-02-22T06:15:24.169Z,1.92
2023-02-22T06:17:53.620Z,2.10
2023-02-22T06:20:25.013Z,1.80
2023-02-22T06:22:57.550Z,1.70
2023-02-22T06:25:28.579Z,1.42
2023-02-22T06:27:56.322Z,1.58
2023-02-22T06:30:26.334Z,1.70
2023-02-22T06:32:54.695Z,1.45
2023-02-22T06:35:23.275Z,1.65
2023-02-22T06:37:51.230Z,2.03
2023-02-22T06:40:20.698Z,2.10
2023-02-22T06:42:49.765Z,2.15
2023-02-22T06:45:18.623Z,2.00
2023-02-22T06:47:47.003Z,1.83
2023-02-22T06:50:23.269Z,1.15
2023-02-22T06:52:51.598Z,1.92
2023-02-22T06:55:23.149Z,1.80
2023-02-22T06:57:51.660Z,2.38
2023-02-22T07:00:21.660Z,2.20
2023-02-22T07:02:49.725Z,1.35
2023-02-22T07:05:20.843Z,1.52
2023-02-22T07:07:50.538Z,1.40
2023-02-22T07:10:23.505Z,1.92
2023-02-22T07:12:52.372Z,2.10
2023-02-22T07:15:22.314Z,1.27
2023-02-22T07:17:50.618Z,1.48
2023-02-22T07:20:20.408Z,1.42
2023-02-22T07:22:48.890Z,1.85
2023-02-22T07:25:16.639Z,1.23
2023-02-22T07:27:45.841Z,1.27
2023-02-22T07:30:19.995Z,1.58
2023-02-22T07:32:48.860Z,1.85
2023-02-22T07:35:19.244Z,1.48
2023-02-22T07:37:47.930Z,1.75
2023-02-22T07:40:18.545Z,2.10
2023-02-22T07:42:56.511Z,2.28
2023-02-22T07:45:26.378Z,1.45
2023-02-22T07:47:55.077Z,1.25
2023-02-22T07:50:25.401Z,1.33
2023-02-22T07:52:56.144Z,1.95
2023-02-22T07:55:26.966Z,1.33
2023-02-22T07:57:59.300Z,2.40
2023-02-22T08:00:30.509Z,1.90
2023-02-22T08:03:00.695Z,1.92
2023-02-22T08:05:31.793Z,1.38
2023-02-22T08:07:59.626Z,1.77
2023-02-22T08:10:28.205Z,2.13
2023-02-22T08:12:57.635Z,2.15
2023-02-22T08:15:29.418Z,1.65
2023-02-22T08:17:58.777Z,1.77
2023-02-22T08:20:27.035Z,2.38
2023-02-22T08:22:56.641Z,2.40
2023-02-22T08:25:28.330Z,1.85
2023-02-22T08:28:01.737Z,2.33
2023-02-22T08:30:31.692Z,2.22
2023-02-22T08:33:02.030Z,2.33
2023-02-22T08:35:31.604Z,2.25
2023-02-22T08:38:02.639Z,1.88
2023-02-22T08:40:33.865Z,2.22
2023-02-22T08:43:03.322Z,1.98
2023-02-22T08:45:31.457Z,1.98
2023-02-22T08:47:59.688Z,2.15
2023-02-22T08:50:32.101Z,2.05
2023-02-22T08:53:03.357Z,2.42
2023-02-22T08:55:34.119Z,2.33
2023-02-22T08:58:04.821Z,1.60
2023-02-22T09:00:34.370Z,2.13
2023-02-22T09:03:04.418Z,1.95
2023-02-22T09:05:32.806Z,2.42
2023-02-22T09:08:01.640Z,2.25
2023-02-22T09:10:33.705Z,1.70
2023-02-22T09:13:05.062Z,1.83
2023-02-22T09:15:35.792Z,2.60
2023-02-22T09:18:04.781Z,2.40
2023-02-22T09:20:32.691Z,2.63
2023-02-22T09:23:02.684Z,2.30
2023-02-22T09:25:31.190Z,2.60
2023-02-22T09:27:58.930Z,2.13
2023-02-22T09:30:32.747Z,2.17
2023-02-22T09:33:03.876Z,2.30
2023-02-22T09:35:35.893Z,2.33
2023-02-22T09:38:07.156Z,2.67
2023-02-22T09:40:44.758Z,2.25
2023-02-22T09:43:46.324Z,2.95
2023-02-22T09:46:27.229Z,2.80
2023-02-22T09:49:06.087Z,2.35
2023-02-22T09:51:42.697Z,2.53
2023-02-22T09:54:24.592Z,2.97
2023-02-22T09:56:58.412Z,3.00
2023-02-22T09:59:32.768Z,2.53
2023-02-22T10:02:22.045Z,2.40
2023-02-22T10:05:01.286Z,2.33
2023-02-22T10:07:36.950Z,2.50
2023-02-22T10:10:06.400Z,2.70
2023-02-22T10:12:53.207Z,2.42
2023-02-22T10:15:47.493Z,2.95
2023-02-22T10:19:11.286Z,2.50
2023-02-22T10:22:10.753Z,2.75
2023-02-22T10:24:55.668Z,2.05
2023-02-22T10:27:34.192Z,1.58
2023-02-22T10:30:24.056Z,2.08
2023-02-22T10:33:00.536Z,2.67
2023-02-22T10:35:35.908Z,2.47
2023-02-22T10:38:18.355Z,2.58
2023-02-22T10:40:54.641Z,2.90
2023-02-22T10:43:23.311Z,2.80
2023-02-22T10:45:55.705Z,2.97
2023-02-22T10:48:27.560Z,2.90
2023-02-22T10:51:02.609Z,2.90
2023-02-22T10:53:32.062Z,3.95
2023-02-22T10:56:19.101Z,3.58
2023-02-22T10:58:52.800Z,3.47
2023-02-22T11:01:26.055Z,3.70
2023-02-22T11:04:05.130Z,3.22
2023-02-22T11:06:36.162Z,3.80
2023-02-22T11:09:15.172Z,3.58
2023-02-22T11:11:46.105Z,4.28
2023-02-22T11:14:26.939Z,3.58
2023-02-22T11:16:58.734Z,3.45
2023-02-22T11:19:30.319Z,3.70
2023-02-22T11:22:14.678Z,3.85
2023-02-22T11:24:50.665Z,3.75
2023-02-22T11:27:31.531Z,4.85
2023-02-22T11:30:26.117Z,3.63
2023-02-22T11:32:58.994Z,4.30
2023-02-22T11:35:52.570Z,4.15
2023-02-22T11:38:24.830Z,4.03
2023-02-22T11:41:17.400Z,3.67
2023-02-22T11:43:47.855Z,4.28
2023-02-22T11:46:19.934Z,3.60
2023-02-22T11:48:59.539Z,4.10
2023-02-22T11:51:49.719Z,3.97
2023-02-22T11:54:42.954Z,4.00
2023-02-22T11:57:37.112Z,3.60
2023-02-22T12:00:24.553Z,4.00
2023-02-22T12:03:21.347Z,3.95
2023-02-22T12:06:08.423Z,3.97
2023-02-22T12:08:56.836Z,3.53
2023-02-22T12:11:38.537Z,4.05
2023-02-22T12:14:26.214Z,3.65
2023-02-22T12:17:31.368Z,4.32
2023-02-22T12:20:09.786Z,3.72
2023-02-22T12:22:48.691Z,3.92
2023-02-22T12:25:23.642Z,3.42
2023-02-22T12:27:58.890Z,3.55
2023-02-22T12:30:32.872Z,3.67
2023-02-22T12:33:06.547Z,3.60
2023-02-22T12:35:37.580Z,3.87
2023-02-22T12:38:22.609Z,5.13
2023-02-22T12:41:03.903Z,3.67
2023-02-22T12:43:41.584Z,3.65
2023-02-22T12:46:18.455Z,4.45
2023-02-22T12:48:55.686Z,3.58
2023-02-22T12:51:33.788Z,4.10
2023-02-22T12:54:12.184Z,3.72
2023-02-22T12:56:48.775Z,3.92
2023-02-22T12:59:26.898Z,3.30
2023-02-22T13:02:01.630Z,4.20
2023-02-22T13:04:31.786Z,4.15
2023-02-22T13:07:23.941Z,3.72
2023-02-22T13:10:21.551Z,4.15
2023-02-22T13:13:03.722Z,3.92
2023-02-22T13:15:47.571Z,3.97
2023-02-22T13:18:25.818Z,3.80
2023-02-22T13:21:02.114Z,3.92
2023-02-22T13:23:44.368Z,3.63
2023-02-22T13:26:22.315Z,3.95
2023-02-22T13:29:00.603Z,3.55
2023-02-22T13:31:55.216Z,3.08
2023-02-22T13:34:48.117Z,3.25
2023-02-22T13:37:48.946Z,2.70
2023-02-22T13:40:47.192Z,3.33
2023-02-22T13:43:41.994Z,3.22
2023-02-22T13:46:35.266Z,3.30
2023-02-22T13:49:28.837Z,3.20
2023-02-22T13:52:02.069Z,3.38
2023-02-22T13:54:42.705Z,2.50
2023-02-22T13:57:24.459Z,3.05
2023-02-22T14:00:24.562Z,3.38
2023-02-22T14:03:06.712Z,3.65
2023-02-22T14:05:51.287Z,2.70
2023-02-22T14:08:46.854Z,3.30
2023-02-22T14:11:45.461Z,3.40
2023-02-22T14:14:18.347Z,3.40
2023-02-22T14:17:33.230Z,3.92
2023-02-22T14:20:35.237Z,3.88
2023-02-22T14:23:36.286Z,3.58
2023-02-22T14:26:20.169Z,3.25
2023-02-22T14:28:57.358Z,4.07
2023-02-22T14:31:36.521Z,3.40
2023-02-22T14:34:12.662Z,4.03
2023-02-22T14:36:52.270Z,3.42
2023-02-22T14:39:33.690Z,3.38
2023-02-22T14:42:08.985Z,3.85
2023-02-22T14:44:44.457Z,4.55
2023-02-22T14:47:22.142Z,3.42
2023-02-22T14:49:54.689Z,4.63
2023-02-22T14:52:30.083Z,3.70
2023-02-22T14:55:14.726Z,4.18
2023-02-22T14:57:56.724Z,3.42
2023-02-22T15:00:31.675Z,3.85
2023-02-22T15:03:01.440Z,3.85
2023-02-22T15:05:38.243Z,3.92
2023-02-22T15:08:10.079Z,3.83
2023-02-22T15:10:44.224Z,4.05
2023-02-22T15:13:20.465Z,4.45
2023-02-22T15:15:50.670Z,4.25
2023-02-22T15:18:25.481Z,4.35
2023-02-22T15:20:58.343Z,3.35
2023-02-22T15:23:39.450Z,3.75
2023-02-22T15:26:07.611Z,4.50
2023-02-22T15:28:36.538Z,5.35
2023-02-22T15:31:23.933Z,4.15
2023-02-22T15:33:53.035Z,4.38
2023-02-22T15:36:25.551Z,4.07
2023-02-22T15:38:56.691Z,3.58
2023-02-22T15:41:31.330Z,3.80
2023-02-22T15:46:34.466Z,4.03
2023-02-22T15:49:23.063Z,4.03
2023-02-22T15:52:07.272Z,3.60
2023-02-22T15:54:45.372Z,4.20
2023-02-22T15:57:18.443Z,3.78
2023-02-22T15:59:52.847Z,3.88
2023-02-22T16:02:35.402Z,3.90
2023-02-22T16:05:09.660Z,3.95
2023-02-22T16:07:45.199Z,3.90
2023-02-22T16:10:33.287Z,4.15
2023-02-22T16:13:30.952Z,4.07
2023-02-22T16:16:02.649Z,4.43
2023-02-22T16:18:35.521Z,4.43
2023-02-22T16:21:12.779Z,3.45
2023-02-22T16:23:52.836Z,3.83
2023-02-22T16:26:30.955Z,3.65
2023-02-22T16:29:01.573Z,4.20
2023-02-22T16:31:33.669Z,4.25
2023-02-22T16:34:03.319Z,4.35
2023-02-22T16:36:42.882Z,3.70
2023-02-22T16:39:20.854Z,4.45
2023-02-22T16:41:52.354Z,4.20
2023-02-22T16:44:20.071Z,3.92
2023-02-22T16:46:47.960Z,3.28
2023-02-22T16:49:15.876Z,4.30
2023-02-22T16:51:48.357Z,4.00
2023-02-22T16:54:24.828Z,3.88
2023-02-22T16:56:57.271Z,3.88
2023-02-22T16:59:25.122Z,4.13
2023-02-22T17:01:52.851Z,4.43
2023-02-22T17:04:25.587Z,3.72
2023-02-22T17:06:54.276Z,4.45
2023-02-22T17:09:22.109Z,3.97
2023-02-22T17:11:54.026Z,4.43
2023-02-22T17:14:28.565Z,3.95
2023-02-22T17:19:27.597Z,4.13
2023-02-22T17:21:55.332Z,4.20
2023-02-22T17:24:29.001Z,4.00
2023-02-22T17:26:59.642Z,4.73
2023-02-22T17:29:28.734Z,3.90
2023-02-22T17:31:57.402Z,3.75
2023-02-22T17:34:25.615Z,3.90
2023-02-22T17:36:53.486Z,4.18
2023-02-22T17:39:21.601Z,4.20
2023-02-22T17:41:54.991Z,4.38
2023-02-22T17:44:24.830Z,4.13
2023-02-22T17:46:53.235Z,4.88
2023-02-22T17:49:21.067Z,4.22
2023-02-22T17:51:49.769Z,4.40
2023-02-22T17:54:18.707Z,4.53
2023-02-22T17:56:46.406Z,4.13
2023-02-22T17:59:14.262Z,4.68
2023-02-22T18:01:44.079Z,4.07
2023-02-22T18:04:11.880Z,4.60
2023-02-22T18:06:40.006Z,4.40
2023-02-22T18:09:10.204Z,4.22
2023-02-22T18:11:40.440Z,4.78
2023-02-22T18:14:10.513Z,4.22
2023-02-22T18:16:39.293Z,4.25
2023-02-22T18:19:08.382Z,3.67
2023-02-22T18:21:36.211Z,4.97
2023-02-22T18:24:04.078Z,5.55
2023-02-22T18:26:31.920Z,4.57
2023-02-22T18:29:00.965Z,4.63
2023-02-22T18:31:28.954Z,5.40
2023-02-22T18:33:58.239Z,5.20
2023-02-22T18:36:27.374Z,4.22
2023-02-22T18:38:56.107Z,4.43
2023-02-22T18:41:26.197Z,5.10
2023-02-22T18:43:55.143Z,3.90
2023-02-22T18:46:25.273Z,5.20
2023-02-22T18:48:55.904Z,4.20
2023-02-22T18:51:25.356Z,4.28
2023-02-22T18:54:00.592Z,4.03
2023-02-22T18:56:30.930Z,3.33
2023-02-22T18:59:01.731Z,4.22
2023-02-22T19:01:35.518Z,4.65
2023-02-22T19:04:03.346Z,4.50
2023-02-22T19:06:31.070Z,4.32
2023-02-22T19:09:02.426Z,3.55
2023-02-22T19:11:30.106Z,2.95
2023-02-22T19:13:59.509Z,3.42
2023-02-22T19:16:28.839Z,2.95
2023-02-22T19:18:58.371Z,2.83
2023-02-22T19:21:31.150Z,3.17
2023-02-22T19:24:00.171Z,2.63
2023-02-22T19:26:29.956Z,2.90
2023-02-22T19:29:00.085Z,2.97
2023-02-22T19:31:31.091Z,3.10
2023-02-22T19:34:02.650Z,3.30
2023-02-22T19:36:30.878Z,3.28
2023-02-22T19:39:01.511Z,3.00
2023-02-22T19:41:30.076Z,2.92
2023-02-22T19:43:58.880Z,2.42
2023-02-22T19:46:26.672Z,3.22
2023-02-22T19:48:56.185Z,3.22
2023-02-22T19:51:27.733Z,2.65
2023-02-22T19:54:02.329Z,3.28
2023-02-22T19:59:02.346Z,2.45
2023-02-22T20:01:33.516Z,2.53
2023-02-22T20:04:05.963Z,2.15
2023-02-22T20:06:40.026Z,1.73
2023-02-22T20:09:11.792Z,3.30
2023-02-22T20:11:39.626Z,2.67
2023-02-22T20:14:07.593Z,3.28
2023-02-22T20:16:36.204Z,2.78
2023-02-22T20:19:04.464Z,3.30
2023-02-22T20:21:36.250Z,2.33
2023-02-22T20:24:07.479Z,2.88
2023-02-22T20:26:40.041Z,2.95
2023-02-22T20:29:09.836Z,2.90
2023-02-22T20:31:39.145Z,3.25
2023-02-22T20:34:07.068Z,2.63
2023-02-22T20:36:37.830Z,3.17
2023-02-22T20:39:13.179Z,2.90
2023-02-22T20:41:46.060Z,2.90
2023-02-22T20:44:17.404Z,2.10
2023-02-22T20:46:47.490Z,2.63
2023-02-22T20:49:19.584Z,3.25
2023-02-22T20:51:48.991Z,2.88
2023-02-22T20:54:17.752Z,2.63
2023-02-22T20:56:48.623Z,2.47
2023-02-22T20:59:20.048Z,3.42
2023-02-22T21:01:49.865Z,2.53
2023-02-22T21:04:18.320Z,3.00
2023-02-22T21:06:46.592Z,2.72
2023-02-22T21:09:17.846Z,3.17
2023-02-22T21:11:47.436Z,2.67
2023-02-22T21:14:19.675Z,2.95
2023-02-22T21:16:49.856Z,3.30
2023-02-22T21:19:27.990Z,2.80
2023-02-22T21:21:58.453Z,2.40
2023-02-22T21:24:28.664Z,2.35
2023-02-22T21:26:59.038Z,3.35
2023-02-22T21:29:27.533Z,2.80
2023-02-22T21:31:56.361Z,2.72
2023-02-22T21:34:25.639Z,2.42
2023-02-22T21:36:54.177Z,2.75
2023-02-22T21:39:28.105Z,3.22
2023-02-22T21:42:00.458Z,3.20
2023-02-22T21:44:29.393Z,2.38
2023-02-22T21:46:57.456Z,3.28
2023-02-22T21:49:25.703Z,2.65
2023-02-22T21:51:53.485Z,2.85
2023-02-22T21:54:21.845Z,2.22
2023-02-22T21:56:50.858Z,3.45
2023-02-22T21:59:23.584Z,2.97
2023-02-22T22:01:55.371Z,2.53
2023-02-22T22:04:27.649Z,2.55
2023-02-22T22:06:57.853Z,3.47
2023-02-22T22:09:28.999Z,2.22
2023-02-22T22:11:59.450Z,1.98
2023-02-22T22:14:29.244Z,2.50
2023-02-22T22:16:59.609Z,2.13
2023-02-22T22:19:29.636Z,2.25
2023-02-22T22:21:57.590Z,2.15
2023-02-22T22:24:25.740Z,3.20
2023-02-22T22:26:55.208Z,2.92
2023-02-22T22:29:23.584Z,2.58
2023-02-22T22:31:52.933Z,2.38
2023-02-22T22:34:20.967Z,2.10
2023-02-22T22:36:48.653Z,2.53
2023-02-22T22:39:16.439Z,2.40
2023-02-22T22:41:45.589Z,3.00
2023-02-22T22:44:16.091Z,2.38
2023-02-22T22:46:48.950Z,2.75
2023-02-22T22:49:18.388Z,2.28
2023-02-22T22:51:47.353Z,2.70
2023-02-22T22:54:15.209Z,3.03
2023-02-22T22:56:42.902Z,2.97
2023-02-22T22:59:13.308Z,3.25
2023-02-22T23:01:45.168Z,2.72
2023-02-22T23:04:17.015Z,3.20
2023-02-22T23:06:50.584Z,3.03
2023-02-22T23:09:22.318Z,3.45
2023-02-22T23:11:53.548Z,3.15
2023-02-22T23:14:24.238Z,3.10
2023-02-22T23:16:56.506Z,2.92
2023-02-22T23:19:24.194Z,4.03
2023-02-22T23:21:55.764Z,3.42
2023-02-22T23:24:27.380Z,3.03
2023-02-22T23:26:59.879Z,2.90
2023-02-22T23:29:29.776Z,2.83
2023-02-22T23:31:58.594Z,3.13
2023-02-22T23:34:28.791Z,3.20
2023-02-22T23:36:57.874Z,3.10
2023-02-22T23:39:27.151Z,3.25
2023-02-22T23:41:59.018Z,3.10
2023-02-22T23:44:27.203Z,3.28
2023-02-22T23:46:55.908Z,3.65
2023-02-22T23:49:26.353Z,4.05
2023-02-22T23:51:54.667Z,3.88
2023-02-22T23:54:24.770Z,3.80
2023-02-22T23:56:56.628Z,3.28
2023-02-22T23:59:26.340Z,3.47
